sensor_id;sensor_type;location;lat;lon;timestamp;pressure;altitude;pressure_sealevel;temperature;humidity
81511;BME280;70931;48.796;8.440;2023-07-31T00:01:52;97320.88;;;14.92;78.61
81511;BME280;70931;48.796;8.440;2023-07-31T00:04:17;97320.13;;;14.77;77.75
81511;BME280;70931;48.796;8.440;2023-07-31T00:06:43;97310.63;;;14.81;78.88
81511;BME280;70931;48.796;8.440;2023-07-31T00:09:08;97295.75;;;14.51;78.63
81511;BME280;70931;48.796;8.440;2023-07-31T00:11:33;97316.38;;;14.78;78.78
81511;BME280;70931;48.796;8.440;2023-07-31T00:13:58;97302.56;;;14.74;78.50
81511;BME280;70931;48.796;8.440;2023-07-31T00:16:24;97325.50;;;14.77;78.57
81511;BME280;70931;48.796;8.440;2023-07-31T00:18:49;97320.69;;;14.72;79.32
81511;BME280;70931;48.796;8.440;2023-07-31T00:21:14;97319.38;;;14.62;78.83
81511;BME280;70931;48.796;8.440;2023-07-31T00:23:39;97314.00;;;14.41;78.84
81511;BME280;70931;48.796;8.440;2023-07-31T00:26:05;97324.75;;;14.62;78.22
81511;BME280;70931;48.796;8.440;2023-07-31T00:28:30;97314.00;;;14.62;79.09
81511;BME280;70931;48.796;8.440;2023-07-31T00:30:55;97295.84;;;14.21;79.42
81511;BME280;70931;48.796;8.440;2023-07-31T00:33:20;97305.97;;;14.41;78.96
81511;BME280;70931;48.796;8.440;2023-07-31T00:35:46;97315.94;;;14.47;78.80
81511;BME280;70931;48.796;8.440;2023-07-31T00:38:11;97291.41;;;14.28;79.83
81511;BME280;70931;48.796;8.440;2023-07-31T00:40:37;97311.75;;;14.38;78.84
81511;BME280;70931;48.796;8.440;2023-07-31T00:43:02;97295.41;;;14.18;77.69
81511;BME280;70931;48.796;8.440;2023-07-31T00:45:27;97311.75;;;14.38;78.45
81511;BME280;70931;48.796;8.440;2023-07-31T00:47:53;97306.38;;;14.38;78.54
81511;BME280;70931;48.796;8.440;2023-07-31T00:50:18;97304.88;;;14.14;78.69
81511;BME280;70931;48.796;8.440;2023-07-31T00:52:44;97312.91;;;14.14;79.06
81511;BME280;70931;48.796;8.440;2023-07-31T00:55:09;97302.88;;;14.01;79.49
81511;BME280;70931;48.796;8.440;2023-07-31T00:57:36;97289.91;;;14.05;78.67
81511;BME280;70931;48.796;8.440;2023-07-31T01:00:03;97297.00;;;14.12;78.36
81511;BME280;70931;48.796;8.440;2023-07-31T01:02:29;97290.78;;;14.12;78.20
81511;BME280;70931;48.796;8.440;2023-07-31T01:04:54;97297.53;;;14.22;78.71
81511;BME280;70931;48.796;8.440;2023-07-31T01:10:04;97280.34;;;14.17;78.42
81511;BME280;70931;48.796;8.440;2023-07-31T01:12:33;97293.69;;;14.10;78.28
81511;BME280;70931;48.796;8.440;2023-07-31T01:15:04;97279.13;;;14.19;78.80
81511;BME280;70931;48.796;8.440;2023-07-31T01:17:29;97280.38;;;14.23;78.77
81511;BME280;70931;48.796;8.440;2023-07-31T01:19:59;97272.03;;;14.12;77.90
81511;BME280;70931;48.796;8.440;2023-07-31T01:28:13;97283.47;;;14.20;76.97
81511;BME280;70931;48.796;8.440;2023-07-31T01:30:44;97273.56;;;14.21;78.10
81511;BME280;70931;48.796;8.440;2023-07-31T01:33:14;97279.75;;;14.21;78.15
81511;BME280;70931;48.796;8.440;2023-07-31T01:35:43;97271.84;;;14.13;77.56
81511;BME280;70931;48.796;8.440;2023-07-31T01:38:08;97265.25;;;14.16;78.02
81511;BME280;70931;48.796;8.440;2023-07-31T01:40:34;97255.66;;;14.00;77.62
81511;BME280;70931;48.796;8.440;2023-07-31T01:42:59;97258.44;;;14.13;77.84
81511;BME280;70931;48.796;8.440;2023-07-31T01:45:24;97252.56;;;13.82;78.32
81511;BME280;70931;48.796;8.440;2023-07-31T01:47:49;97259.28;;;14.14;78.40
81511;BME280;70931;48.796;8.440;2023-07-31T01:50:15;97246.56;;;14.01;77.66
81511;BME280;70931;48.796;8.440;2023-07-31T01:52:40;97259.72;;;13.96;78.08
81511;BME280;70931;48.796;8.440;2023-07-31T01:55:05;97225.38;;;13.85;78.47
81511;BME280;70931;48.796;8.440;2023-07-31T01:57:31;97243.88;;;14.01;77.99
81511;BME280;70931;48.796;8.440;2023-07-31T01:59:56;97226.25;;;13.92;77.85
81511;BME280;70931;48.796;8.440;2023-07-31T02:02:21;97228.75;;;13.94;78.48
81511;BME280;70931;48.796;8.440;2023-07-31T02:04:46;97236.59;;;13.95;78.41
81511;BME280;70931;48.796;8.440;2023-07-31T02:07:12;97248.41;;;13.80;78.68
81511;BME280;70931;48.796;8.440;2023-07-31T02:09:37;97241.31;;;13.93;78.72
81511;BME280;70931;48.796;8.440;2023-07-31T02:12:02;97232.38;;;13.86;79.04
81511;BME280;70931;48.796;8.440;2023-07-31T02:14:28;97242.66;;;13.83;78.92
81511;BME280;70931;48.796;8.440;2023-07-31T02:16:53;97229.69;;;13.86;79.39
81511;BME280;70931;48.796;8.440;2023-07-31T02:19:18;97222.81;;;13.77;79.39
81511;BME280;70931;48.796;8.440;2023-07-31T02:21:43;97233.03;;;13.88;79.32
81511;BME280;70931;48.796;8.440;2023-07-31T02:24:09;97183.38;;;13.71;80.00
81511;BME280;70931;48.796;8.440;2023-07-31T02:26:34;97223.19;;;13.95;79.65
81511;BME280;70931;48.796;8.440;2023-07-31T02:28:59;97218.59;;;13.89;78.41
81511;BME280;70931;48.796;8.440;2023-07-31T02:31:24;97214.75;;;13.56;80.19
81511;BME280;70931;48.796;8.440;2023-07-31T02:33:49;97211.25;;;13.77;79.37
81511;BME280;70931;48.796;8.440;2023-07-31T02:36:15;97200.09;;;13.73;79.72
81511;BME280;70931;48.796;8.440;2023-07-31T02:38:40;97190.88;;;13.61;79.89
81511;BME280;70931;48.796;8.440;2023-07-31T02:41:05;97201.19;;;13.79;79.15
81511;BME280;70931;48.796;8.440;2023-07-31T02:43:31;97209.03;;;13.80;78.48
81511;BME280;70931;48.796;8.440;2023-07-31T02:45:56;97208.16;;;13.94;78.16
81511;BME280;70931;48.796;8.440;2023-07-31T02:48:21;97185.72;;;13.81;79.26
81511;BME280;70931;48.796;8.440;2023-07-31T02:50:47;97206.09;;;13.96;78.86
81511;BME280;70931;48.796;8.440;2023-07-31T02:53:13;97182.59;;;13.98;78.31
81511;BME280;70931;48.796;8.440;2023-07-31T02:55:38;97201.09;;;13.72;79.62
81511;BME280;70931;48.796;8.440;2023-07-31T02:58:03;97209.22;;;13.79;78.90
81511;BME280;70931;48.796;8.440;2023-07-31T03:00:28;97203.66;;;14.01;78.87
81511;BME280;70931;48.796;8.440;2023-07-31T03:02:53;97212.22;;;13.90;78.12
81511;BME280;70931;48.796;8.440;2023-07-31T03:05:19;97208.25;;;14.07;78.82
81511;BME280;70931;48.796;8.440;2023-07-31T03:07:44;97213.94;;;13.98;78.44
81511;BME280;70931;48.796;8.440;2023-07-31T03:10:09;97209.09;;;14.08;78.28
81511;BME280;70931;48.796;8.440;2023-07-31T03:12:34;97215.16;;;13.95;78.61
81511;BME280;70931;48.796;8.440;2023-07-31T03:15:00;97209.78;;;14.16;77.51
81511;BME280;70931;48.796;8.440;2023-07-31T03:17:25;97193.16;;;14.27;76.78
81511;BME280;70931;48.796;8.440;2023-07-31T03:19:50;97213.38;;;14.30;76.82
81511;BME280;70931;48.796;8.440;2023-07-31T03:22:15;97192.69;;;14.24;77.17
81511;BME280;70931;48.796;8.440;2023-07-31T03:24:40;97204.81;;;14.35;76.73
81511;BME280;70931;48.796;8.440;2023-07-31T03:27:06;97202.88;;;14.07;78.96
81511;BME280;70931;48.796;8.440;2023-07-31T03:29:31;97201.72;;;14.16;77.97
81511;BME280;70931;48.796;8.440;2023-07-31T03:31:56;97202.13;;;14.13;77.42
81511;BME280;70931;48.796;8.440;2023-07-31T03:34:22;97196.50;;;14.08;77.86
81511;BME280;70931;48.796;8.440;2023-07-31T03:36:47;97189.09;;;14.10;79.09
81511;BME280;70931;48.796;8.440;2023-07-31T03:39:12;97210.22;;;13.99;78.91
81511;BME280;70931;48.796;8.440;2023-07-31T03:41:37;97195.09;;;14.12;78.62
81511;BME280;70931;48.796;8.440;2023-07-31T03:44:03;97193.69;;;14.16;78.37
81511;BME280;70931;48.796;8.440;2023-07-31T03:46:28;97176.97;;;14.14;77.02
81511;BME280;70931;48.796;8.440;2023-07-31T03:48:53;97192.03;;;14.37;77.39
81511;BME280;70931;48.796;8.440;2023-07-31T03:51:18;97194.81;;;14.28;76.94
81511;BME280;70931;48.796;8.440;2023-07-31T03:53:44;97189.91;;;14.32;78.53
81511;BME280;70931;48.796;8.440;2023-07-31T03:56:10;97197.28;;;14.30;77.42
81511;BME280;70931;48.796;8.440;2023-07-31T03:58:35;97195.28;;;14.32;77.57
81511;BME280;70931;48.796;8.440;2023-07-31T04:01:01;97185.22;;;14.41;77.41
81511;BME280;70931;48.796;8.440;2023-07-31T04:03:26;97188.78;;;14.48;77.53
81511;BME280;70931;48.796;8.440;2023-07-31T04:05:54;97195.78;;;14.21;77.88
81511;BME280;70931;48.796;8.440;2023-07-31T04:08:19;97195.31;;;14.39;76.97
81511;BME280;70931;48.796;8.440;2023-07-31T04:10:45;97195.53;;;14.37;77.72
81511;BME280;70931;48.796;8.440;2023-07-31T04:13:10;97187.78;;;14.27;77.72
81511;BME280;70931;48.796;8.440;2023-07-31T04:15:35;97192.03;;;14.37;77.72
81511;BME280;70931;48.796;8.440;2023-07-31T04:18:00;97192.88;;;14.44;77.83
81511;BME280;70931;48.796;8.440;2023-07-31T04:20:25;97190.88;;;14.52;77.16
81511;BME280;70931;48.796;8.440;2023-07-31T04:22:51;97195.38;;;14.45;76.58
81511;BME280;70931;48.796;8.440;2023-07-31T04:25:16;97171.63;;;14.42;76.38
81511;BME280;70931;48.796;8.440;2023-07-31T04:27:41;97191.00;;;14.38;76.76
81511;BME280;70931;48.796;8.440;2023-07-31T04:30:07;97180.97;;;14.53;76.45
81511;BME280;70931;48.796;8.440;2023-07-31T04:32:32;97190.00;;;14.45;75.96
81511;BME280;70931;48.796;8.440;2023-07-31T04:34:57;97181.03;;;14.59;76.88
81511;BME280;70931;48.796;8.440;2023-07-31T04:37:23;97182.63;;;14.54;76.69
81511;BME280;70931;48.796;8.440;2023-07-31T04:39:48;97156.19;;;14.51;75.74
81511;BME280;70931;48.796;8.440;2023-07-31T04:42:13;97164.91;;;14.59;76.10
81511;BME280;70931;48.796;8.440;2023-07-31T04:44:38;97175.44;;;14.61;76.28
81511;BME280;70931;48.796;8.440;2023-07-31T04:47:04;97185.56;;;14.59;75.08
81511;BME280;70931;48.796;8.440;2023-07-31T04:49:29;97166.16;;;14.57;76.46
81511;BME280;70931;48.796;8.440;2023-07-31T04:51:54;97172.34;;;14.57;76.27
81511;BME280;70931;48.796;8.440;2023-07-31T04:54:19;97135.91;;;14.42;77.23
81511;BME280;70931;48.796;8.440;2023-07-31T04:56:45;97165.13;;;14.99;69.51
81511;BME280;70931;48.796;8.440;2023-07-31T04:59:10;97143.56;;;14.79;73.89
81511;BME280;70931;48.796;8.440;2023-07-31T05:01:35;97158.50;;;15.01;73.29
81511;BME280;70931;48.796;8.440;2023-07-31T05:04:00;97163.00;;;14.88;74.96
81511;BME280;70931;48.796;8.440;2023-07-31T05:06:25;97160.19;;;15.02;74.85
81511;BME280;70931;48.796;8.440;2023-07-31T05:08:51;97159.38;;;15.08;75.97
81511;BME280;70931;48.796;8.440;2023-07-31T05:11:16;97168.47;;;15.01;75.32
81511;BME280;70931;48.796;8.440;2023-07-31T05:13:41;97169.22;;;14.88;74.67
81511;BME280;70931;48.796;8.440;2023-07-31T05:16:06;97164.91;;;14.94;75.61
81511;BME280;70931;48.796;8.440;2023-07-31T05:18:32;97161.25;;;15.08;74.83
81511;BME280;70931;48.796;8.440;2023-07-31T05:20:57;97165.84;;;15.20;74.53
81511;BME280;70931;48.796;8.440;2023-07-31T05:23:22;97155.31;;;15.25;74.97
81511;BME280;70931;48.796;8.440;2023-07-31T05:25:47;97151.63;;;15.26;74.75
81511;BME280;70931;48.796;8.440;2023-07-31T05:28:12;97157.63;;;15.41;74.60
81511;BME280;70931;48.796;8.440;2023-07-31T05:30:38;97165.28;;;15.38;74.85
81511;BME280;70931;48.796;8.440;2023-07-31T05:33:03;97148.34;;;15.37;71.02
81511;BME280;70931;48.796;8.440;2023-07-31T05:35:28;97158.75;;;15.60;69.44
81511;BME280;70931;48.796;8.440;2023-07-31T05:37:53;97161.66;;;15.65;71.57
81511;BME280;70931;48.796;8.440;2023-07-31T05:40:19;97155.69;;;15.83;67.35
81511;BME280;70931;48.796;8.440;2023-07-31T05:42:44;97153.41;;;15.67;71.29
81511;BME280;70931;48.796;8.440;2023-07-31T05:45:09;97151.53;;;15.87;66.54
81511;BME280;70931;48.796;8.440;2023-07-31T05:47:35;97148.44;;;15.90;70.10
81511;BME280;70931;48.796;8.440;2023-07-31T05:50:00;97154.66;;;15.97;70.55
81511;BME280;70931;48.796;8.440;2023-07-31T05:52:25;97150.09;;;16.11;66.75
81511;BME280;70931;48.796;8.440;2023-07-31T05:54:51;97149.28;;;16.23;65.39
81511;BME280;70931;48.796;8.440;2023-07-31T05:57:17;97143.06;;;16.16;68.66
81511;BME280;70931;48.796;8.440;2023-07-31T05:59:42;97143.69;;;16.31;69.85
81511;BME280;70931;48.796;8.440;2023-07-31T06:02:08;97125.28;;;15.95;71.39
81511;BME280;70931;48.796;8.440;2023-07-31T06:04:33;97147.63;;;16.22;71.24
81511;BME280;70931;48.796;8.440;2023-07-31T06:07:00;97144.31;;;16.20;71.65
81511;BME280;70931;48.796;8.440;2023-07-31T06:09:25;97134.34;;;16.27;71.71
81511;BME280;70931;48.796;8.440;2023-07-31T06:11:50;97133.53;;;16.33;70.92
81511;BME280;70931;48.796;8.440;2023-07-31T06:14:15;97134.34;;;16.53;70.69
81511;BME280;70931;48.796;8.440;2023-07-31T06:16:41;97111.34;;;16.44;68.44
81511;BME280;70931;48.796;8.440;2023-07-31T06:19:06;97135.13;;;16.74;65.37
81511;BME280;70931;48.796;8.440;2023-07-31T06:21:31;97123.47;;;16.93;64.40
81511;BME280;70931;48.796;8.440;2023-07-31T06:23:56;97125.09;;;17.07;64.39
81511;BME280;70931;48.796;8.440;2023-07-31T06:26:22;97130.81;;;17.17;62.54
81511;BME280;70931;48.796;8.440;2023-07-31T06:28:47;97136.13;;;17.37;62.05
81511;BME280;70931;48.796;8.440;2023-07-31T06:31:12;97130.41;;;17.64;60.32
81511;BME280;70931;48.796;8.440;2023-07-31T06:33:37;97137.63;;;17.71;60.38
81511;BME280;70931;48.796;8.440;2023-07-31T06:36:02;97143.09;;;17.57;62.62
81511;BME280;70931;48.796;8.440;2023-07-31T06:38:28;97119.91;;;17.43;59.94
81511;BME280;70931;48.796;8.440;2023-07-31T06:40:53;97149.28;;;17.64;60.81
81511;BME280;70931;48.796;8.440;2023-07-31T06:43:19;97155.84;;;17.75;60.68
81511;BME280;70931;48.796;8.440;2023-07-31T06:45:44;97151.28;;;17.76;61.12
81511;BME280;70931;48.796;8.440;2023-07-31T06:48:09;97129.97;;;17.68;62.89
81511;BME280;70931;48.796;8.440;2023-07-31T06:50:35;97152.09;;;17.76;61.79
81511;BME280;70931;48.796;8.440;2023-07-31T06:53:00;97145.25;;;17.74;62.42
81511;BME280;70931;48.796;8.440;2023-07-31T06:55:26;97155.88;;;17.69;61.63
81511;BME280;70931;48.796;8.440;2023-07-31T06:57:53;97158.16;;;17.65;60.61
81511;BME280;70931;48.796;8.440;2023-07-31T07:00:19;97152.91;;;17.77;62.15
81511;BME280;70931;48.796;8.440;2023-07-31T07:02:45;97154.03;;;17.62;60.41
81511;BME280;70931;48.796;8.440;2023-07-31T07:05:10;97150.88;;;17.72;59.88
81511;BME280;70931;48.796;8.440;2023-07-31T07:07:36;97148.31;;;17.84;59.44
81511;BME280;70931;48.796;8.440;2023-07-31T07:10:01;97144.03;;;17.76;59.36
81511;BME280;70931;48.796;8.440;2023-07-31T07:12:31;97131.97;;;17.79;59.03
81511;BME280;70931;48.796;8.440;2023-07-31T07:14:56;97141.06;;;18.09;59.24
81511;BME280;70931;48.796;8.440;2023-07-31T07:17:21;97139.44;;;18.08;59.17
81511;BME280;70931;48.796;8.440;2023-07-31T07:19:47;97136.53;;;18.03;59.06
81511;BME280;70931;48.796;8.440;2023-07-31T07:22:13;97140.47;;;18.07;60.11
81511;BME280;70931;48.796;8.440;2023-07-31T07:24:38;97126.69;;;17.90;59.87
81511;BME280;70931;48.796;8.440;2023-07-31T07:27:04;97122.00;;;18.04;60.04
81511;BME280;70931;48.796;8.440;2023-07-31T07:29:29;97119.31;;;18.04;61.27
81511;BME280;70931;48.796;8.440;2023-07-31T07:31:55;97113.31;;;18.02;59.06
81511;BME280;70931;48.796;8.440;2023-07-31T07:34:23;97124.38;;;18.18;59.82
81511;BME280;70931;48.796;8.440;2023-07-31T07:36:49;97128.06;;;18.24;62.35
81511;BME280;70931;48.796;8.440;2023-07-31T07:39:14;97117.25;;;18.24;58.19
81511;BME280;70931;48.796;8.440;2023-07-31T07:41:39;97116.47;;;18.17;58.56
81511;BME280;70931;48.796;8.440;2023-07-31T07:44:04;97111.72;;;18.37;57.31
81511;BME280;70931;48.796;8.440;2023-07-31T07:46:30;97113.53;;;18.25;56.90
81511;BME280;70931;48.796;8.440;2023-07-31T07:48:55;97107.75;;;18.40;57.09
81511;BME280;70931;48.796;8.440;2023-07-31T07:51:20;97125.75;;;18.52;57.52
81511;BME280;70931;48.796;8.440;2023-07-31T07:53:45;97113.09;;;18.46;56.78
81511;BME280;70931;48.796;8.440;2023-07-31T07:56:10;97096.81;;;18.35;59.40
81511;BME280;70931;48.796;8.440;2023-07-31T07:58:36;97102.25;;;18.28;59.19
81511;BME280;70931;48.796;8.440;2023-07-31T08:01:01;97107.00;;;18.33;57.69
81511;BME280;70931;48.796;8.440;2023-07-31T08:03:26;97101.56;;;18.39;60.58
81511;BME280;70931;48.796;8.440;2023-07-31T08:05:51;97107.50;;;18.23;61.61
81511;BME280;70931;48.796;8.440;2023-07-31T08:08:17;97096.66;;;18.30;58.66
81511;BME280;70931;48.796;8.440;2023-07-31T08:10:42;97101.88;;;18.49;60.17
81511;BME280;70931;48.796;8.440;2023-07-31T08:13:10;97117.25;;;18.49;59.71
81511;BME280;70931;48.796;8.440;2023-07-31T08:15:35;97114.50;;;18.55;58.69
81511;BME280;70931;48.796;8.440;2023-07-31T08:18:00;97120.66;;;18.62;59.55
81511;BME280;70931;48.796;8.440;2023-07-31T08:20:26;97102.88;;;18.73;57.94
81511;BME280;70931;48.796;8.440;2023-07-31T08:22:51;97115.03;;;18.82;60.07
81511;BME280;70931;48.796;8.440;2023-07-31T08:25:17;97097.56;;;18.85;62.12
81511;BME280;70931;48.796;8.440;2023-07-31T08:27:45;97108.56;;;19.01;61.54
81511;BME280;70931;48.796;8.440;2023-07-31T08:30:11;97114.03;;;18.95;61.21
81511;BME280;70931;48.796;8.440;2023-07-31T08:32:37;97105.94;;;19.13;60.32
81511;BME280;70931;48.796;8.440;2023-07-31T08:35:02;97098.72;;;19.07;59.53
81511;BME280;70931;48.796;8.440;2023-07-31T08:37:27;97105.47;;;19.16;56.41
81511;BME280;70931;48.796;8.440;2023-07-31T08:39:53;97105.84;;;19.19;56.42
81511;BME280;70931;48.796;8.440;2023-07-31T08:42:18;97085.06;;;19.02;57.42
81511;BME280;70931;48.796;8.440;2023-07-31T08:44:43;97098.09;;;19.23;55.09
81511;BME280;70931;48.796;8.440;2023-07-31T08:47:09;97092.09;;;19.39;56.53
81511;BME280;70931;48.796;8.440;2023-07-31T08:49:35;97085.44;;;19.35;54.52
81511;BME280;70931;48.796;8.440;2023-07-31T08:52:02;97081.19;;;19.57;54.44
81511;BME280;70931;48.796;8.440;2023-07-31T08:54:27;97084.06;;;19.62;53.70
81511;BME280;70931;48.796;8.440;2023-07-31T08:56:52;97079.56;;;19.56;55.47
81511;BME280;70931;48.796;8.440;2023-07-31T08:59:19;97081.00;;;19.70;54.43
81511;BME280;70931;48.796;8.440;2023-07-31T09:01:49;97072.31;;;19.68;54.95
81511;BME280;70931;48.796;8.440;2023-07-31T09:04:16;97075.66;;;19.94;52.60
81511;BME280;70931;48.796;8.440;2023-07-31T09:06:44;97079.00;;;20.42;52.18
81511;BME280;70931;48.796;8.440;2023-07-31T09:09:10;97089.09;;;20.70;50.20
81511;BME280;70931;48.796;8.440;2023-07-31T09:11:35;97074.66;;;20.92;49.46
81511;BME280;70931;48.796;8.440;2023-07-31T09:14:00;97092.47;;;21.00;50.37
81511;BME280;70931;48.796;8.440;2023-07-31T09:16:29;97068.91;;;21.00;49.15
81511;BME280;70931;48.796;8.440;2023-07-31T09:18:56;97060.53;;;20.90;51.23
81511;BME280;70931;48.796;8.440;2023-07-31T09:21:21;97048.47;;;21.10;52.27
81511;BME280;70931;48.796;8.440;2023-07-31T09:23:47;97075.09;;;21.13;49.71
81511;BME280;70931;48.796;8.440;2023-07-31T09:26:28;97046.97;;;20.90;49.41
81511;BME280;70931;48.796;8.440;2023-07-31T09:28:54;97049.41;;;20.40;51.26
81511;BME280;70931;48.796;8.440;2023-07-31T09:31:40;97048.84;;;20.38;51.19
81511;BME280;70931;48.796;8.440;2023-07-31T09:34:06;97060.38;;;20.57;54.68
81511;BME280;70931;48.796;8.440;2023-07-31T09:36:32;97015.63;;;20.20;50.77
81511;BME280;70931;48.796;8.440;2023-07-31T09:39:03;97039.63;;;20.05;52.05
81511;BME280;70931;48.796;8.440;2023-07-31T09:41:28;97044.81;;;20.41;52.29
81511;BME280;70931;48.796;8.440;2023-07-31T09:43:54;97035.13;;;20.68;53.56
81511;BME280;70931;48.796;8.440;2023-07-31T09:46:20;97029.41;;;20.41;51.94
81511;BME280;70931;48.796;8.440;2023-07-31T09:48:46;97010.56;;;20.35;52.75
81511;BME280;70931;48.796;8.440;2023-07-31T09:51:11;97031.03;;;20.66;51.59
81511;BME280;70931;48.796;8.440;2023-07-31T09:53:37;97020.31;;;20.59;51.19
81511;BME280;70931;48.796;8.440;2023-07-31T09:56:02;97027.53;;;20.93;50.44
81511;BME280;70931;48.796;8.440;2023-07-31T09:58:29;97031.63;;;20.96;49.57
81511;BME280;70931;48.796;8.440;2023-07-31T10:00:55;97023.97;;;20.93;52.16
81511;BME280;70931;48.796;8.440;2023-07-31T10:03:22;97021.69;;;21.13;48.39
81511;BME280;70931;48.796;8.440;2023-07-31T10:05:50;97016.53;;;21.73;48.55
81511;BME280;70931;48.796;8.440;2023-07-31T10:08:18;97006.00;;;21.60;48.26
81511;BME280;70931;48.796;8.440;2023-07-31T10:10:45;97024.59;;;21.51;49.50
81511;BME280;70931;48.796;8.440;2023-07-31T10:13:12;97023.16;;;21.94;48.18
81511;BME280;70931;48.796;8.440;2023-07-31T10:15:38;97014.22;;;21.65;47.56
81511;BME280;70931;48.796;8.440;2023-07-31T10:18:05;97021.31;;;21.66;48.18
81511;BME280;70931;48.796;8.440;2023-07-31T10:20:31;97014.91;;;21.72;48.42
81511;BME280;70931;48.796;8.440;2023-07-31T10:22:56;97006.81;;;22.27;47.34
81511;BME280;70931;48.796;8.440;2023-07-31T10:25:23;97018.66;;;22.38;46.52
81511;BME280;70931;48.796;8.440;2023-07-31T10:27:49;96995.72;;;22.67;45.87
81511;BME280;70931;48.796;8.440;2023-07-31T10:30:17;97008.00;;;22.96;47.75
81511;BME280;70931;48.796;8.440;2023-07-31T10:32:43;97004.28;;;23.51;46.72
81511;BME280;70931;48.796;8.440;2023-07-31T10:35:10;97017.50;;;23.69;44.04
81511;BME280;70931;48.796;8.440;2023-07-31T10:37:40;97022.31;;;23.57;44.45
81511;BME280;70931;48.796;8.440;2023-07-31T10:40:16;97030.09;;;23.00;45.03
81511;BME280;70931;48.796;8.440;2023-07-31T10:42:50;97012.53;;;22.86;45.80
81511;BME280;70931;48.796;8.440;2023-07-31T10:47:49;97027.56;;;22.93;45.61
81511;BME280;70931;48.796;8.440;2023-07-31T10:52:47;97012.84;;;22.51;45.52
81511;BME280;70931;48.796;8.440;2023-07-31T10:55:38;97043.13;;;22.38;46.76
81511;BME280;70931;48.796;8.440;2023-07-31T10:58:09;97048.28;;;22.39;47.01
81511;BME280;70931;48.796;8.440;2023-07-31T11:00:37;97006.13;;;22.37;47.32
81511;BME280;70931;48.796;8.440;2023-07-31T11:05:42;97027.91;;;22.75;46.25
81511;BME280;70931;48.796;8.440;2023-07-31T11:10:39;96999.50;;;22.66;47.21
81511;BME280;70931;48.796;8.440;2023-07-31T11:13:04;97016.88;;;22.65;46.66
81511;BME280;70931;48.796;8.440;2023-07-31T11:15:30;97014.22;;;22.70;46.39
81511;BME280;70931;48.796;8.440;2023-07-31T11:17:55;96996.06;;;22.97;46.67
81511;BME280;70931;48.796;8.440;2023-07-31T11:20:21;97021.81;;;23.11;45.73
81511;BME280;70931;48.796;8.440;2023-07-31T11:22:46;97009.19;;;24.12;43.81
81511;BME280;70931;48.796;8.440;2023-07-31T11:25:14;97006.66;;;23.74;43.27
81511;BME280;70931;48.796;8.440;2023-07-31T11:27:39;96997.47;;;24.17;42.88
81511;BME280;70931;48.796;8.440;2023-07-31T11:30:05;97001.47;;;24.41;44.40
81511;BME280;70931;48.796;8.440;2023-07-31T11:32:30;96985.97;;;24.52;43.19
81511;BME280;70931;48.796;8.440;2023-07-31T11:34:55;96993.31;;;25.03;43.31
81511;BME280;70931;48.796;8.440;2023-07-31T11:37:21;96997.50;;;25.46;41.04
81511;BME280;70931;48.796;8.440;2023-07-31T11:39:59;96989.56;;;25.29;41.75
81511;BME280;70931;48.796;8.440;2023-07-31T11:42:25;97001.03;;;25.31;42.48
81511;BME280;70931;48.796;8.440;2023-07-31T11:44:50;96985.72;;;25.15;40.95
81511;BME280;70931;48.796;8.440;2023-07-31T11:47:16;96987.31;;;25.06;42.40
81511;BME280;70931;48.796;8.440;2023-07-31T11:49:41;96991.28;;;24.73;40.90
81511;BME280;70931;48.796;8.440;2023-07-31T11:52:07;96966.34;;;25.27;41.39
81511;BME280;70931;48.796;8.440;2023-07-31T11:54:32;96979.28;;;26.22;40.42
81511;BME280;70931;48.796;8.440;2023-07-31T11:56:58;96952.47;;;26.19;38.38
81511;BME280;70931;48.796;8.440;2023-07-31T11:59:24;96968.03;;;26.39;37.53
81511;BME280;70931;48.796;8.440;2023-07-31T12:01:49;96966.94;;;26.40;38.98
81511;BME280;70931;48.796;8.440;2023-07-31T12:04:14;96974.22;;;26.70;36.98
81511;BME280;70931;48.796;8.440;2023-07-31T12:06:40;96974.47;;;26.73;36.49
81511;BME280;70931;48.796;8.440;2023-07-31T12:09:05;96957.06;;;27.13;36.50
81511;BME280;70931;48.796;8.440;2023-07-31T12:11:31;96963.38;;;27.13;36.65
81511;BME280;70931;48.796;8.440;2023-07-31T12:13:56;96932.03;;;26.86;37.41
81511;BME280;70931;48.796;8.440;2023-07-31T12:16:26;96932.19;;;27.04;36.63
81511;BME280;70931;48.796;8.440;2023-07-31T12:18:52;96918.94;;;26.73;36.75
81511;BME280;70931;48.796;8.440;2023-07-31T12:21:17;96911.81;;;27.26;37.97
81511;BME280;70931;48.796;8.440;2023-07-31T12:23:44;96905.91;;;26.54;38.16
81511;BME280;70931;48.796;8.440;2023-07-31T12:26:11;96909.78;;;26.33;37.92
81511;BME280;70931;48.796;8.440;2023-07-31T12:28:38;96905.69;;;27.00;38.16
81511;BME280;70931;48.796;8.440;2023-07-31T12:31:04;96896.25;;;27.60;35.86
81511;BME280;70931;48.796;8.440;2023-07-31T12:33:36;96914.28;;;27.95;35.69
81511;BME280;70931;48.796;8.440;2023-07-31T12:36:04;96947.53;;;26.06;38.67
81511;BME280;70931;48.796;8.440;2023-07-31T12:38:30;96909.22;;;26.41;38.61
81511;BME280;70931;48.796;8.440;2023-07-31T12:40:55;96910.44;;;27.28;36.27
81511;BME280;70931;48.796;8.440;2023-07-31T12:43:21;96909.72;;;27.51;34.89
81511;BME280;70931;48.796;8.440;2023-07-31T12:45:46;96923.88;;;26.71;36.64
81511;BME280;70931;48.796;8.440;2023-07-31T12:48:11;96881.09;;;26.31;38.23
81511;BME280;70931;48.796;8.440;2023-07-31T12:50:36;96919.69;;;25.89;38.94
81511;BME280;70931;48.796;8.440;2023-07-31T12:53:02;96887.94;;;26.23;38.28
81511;BME280;70931;48.796;8.440;2023-07-31T12:55:28;96909.28;;;26.01;38.35
81511;BME280;70931;48.796;8.440;2023-07-31T12:57:53;96885.69;;;26.45;37.81
81511;BME280;70931;48.796;8.440;2023-07-31T13:00:18;96892.06;;;26.16;37.91
81511;BME280;70931;48.796;8.440;2023-07-31T13:02:43;96876.53;;;25.15;40.39
81511;BME280;70931;48.796;8.440;2023-07-31T13:05:09;96876.00;;;25.18;41.46
81511;BME280;70931;48.796;8.440;2023-07-31T13:07:34;96845.13;;;25.03;41.96
81511;BME280;70931;48.796;8.440;2023-07-31T13:09:59;96882.53;;;25.07;41.74
81511;BME280;70931;48.796;8.440;2023-07-31T13:12:25;96871.88;;;24.96;40.87